LIPFLIPK

Guest
Details From LIPF - Ferrara
To LIPK - FORLI
Flight Number -
Tags generated
Created
Modified
Stats Distance 42 nm / 78 km
Max Altitude 0 ft / 0 m
Waypoints 3
Social Downloads 2
Likes 0
Share VATSIM

Download

Looking for another format? Having issues loading an existing format? Contact us
Advertisement - Login to hide

Notes

Basic altitude profile: - Ascent Rate: 2500ft/min - Ascent Speed: 250kts - Cruise Altitude: 35000ft - Cruise Speed: 420kts - Descent Rate: 1500ft/min - Descent Speed: 250kts Options: - Use NATs: yes - Use PACOTS: yes - Use low airways: yes - Use high airways: yes

Route

LIPF FER LIPK

ID Type Via Altitude Latitude Longitude Leg Dist Tot Dist Heading (true) Name
O LIPF APT - 0 ft / 0 m 44.81555˚ 11.61393˚ - 0 nm - Ferrara
FER NDB - 0 ft / 0 m 44.81444˚ 11.61639˚ 0 nm 0 nm 122° / 122° FERRARA NDB
O LIPK APT - 0 ft / 0 m 44.19474˚ 12.07009˚ 41 nm 42 nm 152° / 153° FORLI

Altitude Profile

Advertisement - Login to hide

LIPF

Details ICAO LIPF
Name Ferrara
Region Italy
Timezone Europe/Rome (UTC+1.0)
Stats Elevation 21 ft / 6 m (AMSL)
Location 44.815548° 11.613928°
Runways 2
Magnetic Variation 2.996° E

METAR

LIPF 130855Z 25004KT 0100 FG OVC001 01/00 Q1017 RMK OVC VIS MIN 0100

Decode

TAF

Not found

Departure Runways

ID Width Length Bearing (true) Bearing (mag) Surface Threshold Offset Overrun Length
09L 98 ft / 30 m 2,626 ft / 801 m 90.00° 87.00° Asphalt 0 ft / 0 m 0 ft / 0 m
09R 197 ft / 60 m 2,955 ft / 901 m 90.00° 87.00° Dirt 0 ft / 0 m 0 ft / 0 m
27L 197 ft / 60 m 2,955 ft / 901 m 270.00° 267.00° Dirt 0 ft / 0 m 0 ft / 0 m
27R 98 ft / 30 m 2,626 ft / 801 m 270.00° 267.00° Asphalt 0 ft / 0 m 0 ft / 0 m

LIPK

Details ICAO LIPK (FRL)
Name FORLI
Region Italy
Timezone Europe/Rome (UTC+1.0)
Stats Elevation 97 ft / 30 m (AMSL)
Location 44.194743° 12.070087°
Runways 1
Magnetic Variation 3.065° E

METAR

LIPK 130900Z 00000KT CAVOK 07/01 Q1018

Decode

TAF

Not found

Destination Runways

ID Width Length Bearing (true) Bearing (mag) Surface Threshold Offset Overrun Length
12 148 ft / 45 m 7,893 ft / 2,406 m 117.70° 114.63° Asphalt 0 ft / 0 m 0 ft / 0 m
30 148 ft / 45 m 7,893 ft / 2,406 m 297.72° 294.65° Asphalt 0 ft / 0 m 0 ft / 0 m

Approach Navaids

Runway Type Ident Frequency Range Bearing (true) Bearing (mag) Slope Elevation
12 Localiser FOR 109.70 MHz 18 nm / 33 km 117.63° 114.57° - 98 ft / 30 m (AMSL)
12 Glidescope FOR 109.70 MHz 10 nm / 19 km 117.71° 114.64° 3.33° 98 ft / 30 m (AMSL)